Time;durP1;ratioP1;P1;durP2;ratioP2;P2;SDS_P1;SDS_P2;PMS_P1;PMS_P2;Temp;Humidity;BMP_temperature;BMP_pressure;BME280_temperature;BME280_humidity;BME280_pressure;Samples;Min_cycle;Max_cycle;Signal;HPM_P1;HPM_P2
2022/03/17 00:00:28;;;;;;;;;8.00;8.00;;;;;14.68;57.97;101665.78;2117971;27;47554;-69
2022/03/17 00:01:28;;;;;;;;;9.67;9.67;;;;;14.69;58.21;101673.75;2093756;28;47777;-65
2022/03/17 00:02:29;;;;;;;;;7.33;7.33;;;;;14.68;57.90;101660.44;2102574;28;47595;-69
2022/03/17 00:03:29;;;;;;;;;8.00;8.00;;;;;14.67;58.02;101666.69;2120733;27;47835;-71
2022/03/17 00:04:31;;;;;;;;;9.00;9.00;;;;;14.68;57.65;101673.78;2129555;27;47780;-66
2022/03/17 00:05:31;;;;;;;;;8.25;8.25;;;;;14.69;58.22;101667.53;2123826;27;47576;-67
2022/03/17 00:06:32;;;;;;;;;10.33;9.00;;;;;14.70;57.82;101671.94;2120715;27;47862;-65
2022/03/17 00:07:32;;;;;;;;;9.00;8.67;;;;;14.71;58.05;101676.38;2121003;27;47855;-65
2022/03/17 00:08:33;;;;;;;;;7.00;7.00;;;;;14.68;58.17;101677.34;2127161;27;47720;-66
2022/03/17 00:09:33;;;;;;;;;8.67;8.67;;;;;14.69;58.06;101679.09;2124397;27;47710;-68
2022/03/17 00:10:33;;;;;;;;;12.00;9.33;;;;;14.69;57.85;101684.44;2123459;27;48044;-65
2022/03/17 00:11:35;;;;;;;;;12.00;11.00;;;;;14.68;57.90;101679.13;2121888;27;47279;-68
2022/03/17 00:12:36;;;;;;;;;9.75;8.75;;;;;14.66;58.16;101687.19;2128634;27;48605;-64
2022/03/17 00:13:36;;;;;;;;;9.00;9.00;;;;;14.66;57.92;101686.31;2125115;27;48131;-66
2022/03/17 00:14:37;;;;;;;;;8.50;6.50;;;;;14.66;57.91;101686.31;2103800;27;47594;-64
2022/03/17 00:15:39;;;;;;;;;11.00;10.00;;;;;14.63;57.88;101683.72;2104164;27;47009;-68
2022/03/17 00:16:40;;;;;;;;;11.25;10.00;;;;;14.63;58.28;101689.94;2123261;27;47571;-68
2022/03/17 00:17:41;;;;;;;;;11.00;10.00;;;;;14.63;57.97;101689.06;2122187;27;47503;-66
2022/03/17 00:18:42;;;;;;;;;12.00;11.50;;;;;14.63;58.09;101694.41;2122364;27;47452;-65
2022/03/17 00:19:42;;;;;;;;;13.75;11.00;;;;;14.62;57.88;101698.88;2123707;27;47803;-66
2022/03/17 00:20:43;;;;;;;;;10.33;10.33;;;;;14.61;58.06;101691.75;2127071;27;48245;-66
2022/03/17 00:21:43;;;;;;;;;11.33;8.67;;;;;14.61;58.52;101694.44;2104035;28;47518;-64
2022/03/17 00:22:44;;;;;;;;;6.00;6.00;;;;;14.60;58.00;101691.78;2103410;28;47313;-67
2022/03/17 00:23:44;;;;;;;;;11.33;10.00;;;;;14.61;58.55;101697.09;2124271;27;47585;-64
2022/03/17 00:24:46;;;;;;;;;11.67;11.33;;;;;14.61;58.27;101698.88;2128233;27;47542;-65
2022/03/17 00:25:46;;;;;;;;;8.50;8.50;;;;;14.60;58.53;101697.13;2127115;27;45768;-64
2022/03/17 00:26:47;;;;;;;;;8.00;8.00;;;;;14.61;58.21;101693.53;2129701;27;47601;-65
2022/03/17 00:27:47;;;;;;;;;12.00;12.00;;;;;14.58;58.30;101696.28;2128847;27;47971;-65
2022/03/17 00:28:48;;;;;;;;;11.00;10.67;;;;;14.56;58.27;101690.97;2122269;27;47630;-67
2022/03/17 00:29:50;;;;;;;;;12.00;12.00;;;;;14.54;58.51;101703.50;2122437;27;47659;-67
2022/03/17 00:30:50;;;;;;;;;11.00;10.80;;;;;14.54;58.04;101699.94;2121835;27;47984;-66
2022/03/17 00:31:51;;;;;;;;;10.00;10.00;;;;;14.54;58.42;101705.28;2122349;27;47767;-67
2022/03/17 00:32:51;;;;;;;;;13.33;12.00;;;;;14.54;58.19;101700.81;2118924;27;48000;-66
2022/03/17 00:33:52;;;;;;;;;13.75;13.50;;;;;14.54;58.17;101711.50;2112659;27;45849;-66
2022/03/17 00:36:11;;;;;;;;;8.50;8.00;;;;;14.54;58.48;101721.31;2130074;27;48237;-68
2022/03/17 00:37:11;;;;;;;;;14.50;13.75;;;;;14.53;58.47;101724.91;2127516;27;47706;-66
2022/03/17 00:38:17;;;;;;;;;13.33;13.33;;;;;14.53;58.21;101727.56;2120758;27;47437;-68
2022/03/17 00:39:18;;;;;;;;;13.00;13.00;;;;;14.52;58.40;101729.34;2113589;27;47814;-65
2022/03/17 00:40:18;;;;;;;;;12.00;12.00;;;;;14.52;58.47;101726.69;2127679;27;47735;-69
2022/03/17 00:41:19;;;;;;;;;15.75;14.00;;;;;14.51;58.39;101730.28;2122499;27;47988;-64
2022/03/17 00:42:21;;;;;;;;;12.00;11.67;;;;;14.51;58.48;101729.41;2130960;27;47309;-66
2022/03/17 00:43:22;;;;;;;;;15.20;12.60;;;;;14.51;58.22;101734.75;2130672;27;47611;-70
2022/03/17 00:44:23;;;;;;;;;14.75;13.75;;;;;14.50;58.39;101739.19;2130960;27;47254;-69
2022/03/17 00:45:24;;;;;;;;;16.00;16.00;;;;;14.50;58.54;101739.19;2103723;28;48019;-65
2022/03/17 00:46:25;;;;;;;;;15.20;14.40;;;;;14.50;58.64;101731.19;2103332;27;47994;-67
2022/03/17 00:47:26;;;;;;;;;14.25;14.25;;;;;14.50;58.20;101741.00;2124320;27;47607;-62
2022/03/17 00:48:26;;;;;;;;;15.25;15.25;;;;;14.50;58.59;101741.00;2114010;27;47857;-67
2022/03/17 00:49:26;;;;;;;;;12.75;12.75;;;;;14.49;58.28;101731.22;2111273;27;47843;-66
2022/03/17 00:50:27;;;;;;;;;13.00;13.00;;;;;14.49;58.28;101741.91;2113088;27;47635;-69
2022/03/17 00:51:27;;;;;;;;;15.75;13.75;;;;;14.49;58.31;101741.91;2121938;27;48373;-64
2022/03/17 00:52:28;;;;;;;;;18.25;18.25;;;;;14.48;58.56;101749.00;2129266;27;47574;-68
2022/03/17 00:53:28;;;;;;;;;13.50;13.50;;;;;14.48;58.50;101741.00;2127996;27;47927;-67
2022/03/17 00:54:28;;;;;;;;;17.25;17.25;;;;;14.48;58.32;101753.47;2122336;27;47740;-66
2022/03/17 00:55:29;;;;;;;;;18.00;18.00;;;;;14.47;58.44;101749.94;2112752;27;47632;-67
2022/03/17 00:56:30;;;;;;;;;18.75;17.50;;;;;14.48;58.31;101753.47;2112559;27;47607;-66
2022/03/17 00:57:31;;;;;;;;;17.00;16.00;;;;;14.46;58.77;101753.50;2122291;27;47242;-65
2022/03/17 00:58:31;;;;;;;;;20.20;18.40;;;;;14.46;58.35;101750.84;2125493;27;47408;-66
2022/03/17 00:59:32;;;;;;;;;14.25;12.50;;;;;14.45;58.68;101750.88;2114343;27;47665;-66
2022/03/17 01:00:33;;;;;;;;;15.60;15.60;;;;;14.44;58.49;101752.66;2112692;27;47419;-67
2022/03/17 01:01:34;;;;;;;;;20.00;20.00;;;;;14.45;58.49;101750.88;2103164;27;47268;-65
2022/03/17 01:02:35;;;;;;;;;22.80;21.00;;;;;14.45;58.79;101746.41;2105888;27;47820;-63
2022/03/17 01:03:36;;;;;;;;;18.67;18.00;;;;;14.46;58.64;101760.66;2123515;27;47392;-67
2022/03/17 01:04:36;;;;;;;;;14.50;14.50;;;;;14.45;58.40;101758.88;2122196;27;48068;-67
2022/03/17 01:05:38;;;;;;;;;25.00;23.50;;;;;14.42;58.71;101752.66;2121841;27;47542;-64
2022/03/17 01:06:38;;;;;;;;;22.60;21.00;;;;;14.42;58.79;101765.16;2121929;27;47789;-66
2022/03/17 01:07:39;;;;;;;;;16.50;16.00;;;;;14.41;58.68;101763.38;2121997;27;47352;-67
2022/03/17 01:08:40;;;;;;;;;24.50;21.25;;;;;14.40;58.79;101773.19;2121525;27;47713;-65
2022/03/17 01:09:40;;;;;;;;;19.50;19.50;;;;;14.41;58.56;101774.06;2121720;27;47490;-66
2022/03/17 01:10:42;;;;;;;;;25.00;23.00;;;;;14.39;58.56;101767.88;2129012;27;48057;-66
2022/03/17 01:11:43;;;;;;;;;18.60;16.40;;;;;14.37;58.84;101767.06;2124877;27;47814;-67
2022/03/17 01:12:46;;;;;;;;;17.25;16.50;;;;;14.36;58.57;101767.97;2126762;27;48108;-66
2022/03/17 01:13:46;;;;;;;;;19.60;17.20;;;;;14.35;58.52;101768.84;2126262;27;47369;-66
2022/03/17 01:14:47;;;;;;;;;21.00;21.00;;;;;14.35;58.57;101763.50;2129887;27;46878;-65
2022/03/17 01:15:47;;;;;;;;;19.75;17.50;;;;;14.36;58.87;101765.28;2122252;27;47711;-67
2022/03/17 01:16:48;;;;;;;;;21.25;21.25;;;;;14.36;58.54;101763.50;2125328;27;47564;-65
2022/03/17 01:17:49;;;;;;;;;20.50;19.75;;;;;14.36;59.05;101766.16;2125874;27;47620;-63
2022/03/17 01:18:49;;;;;;;;;22.00;19.40;;;;;14.37;58.52;101769.72;2123595;27;47626;-65
2022/03/17 01:19:50;;;;;;;;;20.75;20.00;;;;;14.36;58.84;101771.50;2122009;27;47949;-66
2022/03/17 01:20:50;;;;;;;;;18.25;17.50;;;;;14.37;58.62;101767.06;2122190;27;48035;-68
2022/03/17 01:21:51;;;;;;;;;23.75;21.75;;;;;14.37;58.80;101773.25;2123360;27;47728;-66
2022/03/17 01:22:51;;;;;;;;;19.25;19.25;;;;;14.36;58.62;101770.63;2121985;27;48002;-67
2022/03/17 01:23:51;;;;;;;;;20.75;20.75;;;;;14.35;58.56;101780.41;2121410;27;47709;-64
2022/03/17 01:24:52;;;;;;;;;19.50;18.25;;;;;14.35;58.57;101775.06;2117040;27;48248;-67
2022/03/17 01:25:52;;;;;;;;;19.00;19.00;;;;;14.36;58.85;101775.97;2108968;27;48010;-63
2022/03/17 01:26:53;;;;;;;;;19.25;18.00;;;;;14.35;58.67;101777.72;2105115;27;47991;-67
2022/03/17 01:27:53;;;;;;;;;22.50;20.00;;;;;14.35;58.69;101783.06;2114517;27;48041;-67
2022/03/17 01:28:54;;;;;;;;;19.75;19.00;;;;;14.36;59.06;101786.66;2130390;27;47614;-65
2022/03/17 01:29:54;;;;;;;;;22.25;22.25;;;;;14.37;58.80;101777.72;2128213;27;47673;-69
2022/03/17 01:30:55;;;;;;;;;17.50;17.50;;;;;14.35;58.89;101785.75;2130088;27;47424;-69
2022/03/17 01:31:56;;;;;;;;;21.75;20.75;;;;;14.35;58.84;101783.06;2121599;27;47459;-65
2022/03/17 01:32:56;;;;;;;;;20.75;19.50;;;;;14.35;58.98;101785.75;2121874;27;47128;-68
2022/03/17 01:33:56;;;;;;;;;19.50;19.50;;;;;14.35;59.13;101780.41;2104219;27;48158;-67
2022/03/17 01:34:57;;;;;;;;;22.50;22.50;;;;;14.36;58.88;101794.66;2103614;28;47538;-66
2022/03/17 01:35:57;;;;;;;;;24.00;22.00;;;;;14.35;58.81;101787.53;2123723;27;47476;-65
2022/03/17 01:36:58;;;;;;;;;27.00;25.00;;;;;14.35;58.95;101790.22;2121995;27;47905;-65
2022/03/17 01:37:58;;;;;;;;;14.00;14.00;;;;;14.34;59.03;101793.78;2121912;27;47441;-67
2022/03/17 01:38:59;;;;;;;;;18.75;18.75;;;;;14.34;59.10;101804.47;2122032;27;47130;-66
2022/03/17 01:39:59;;;;;;;;;24.00;22.00;;;;;14.33;58.97;101800.03;2126173;27;47881;-68
2022/03/17 01:41:00;;;;;;;;;24.00;23.00;;;;;14.33;58.88;101800.91;2126343;27;47333;-67
2022/03/17 01:42:04;;;;;;;;;23.50;23.50;;;;;14.33;58.74;101808.06;2125294;27;46973;-63
2022/03/17 01:43:04;;;;;;;;;22.80;22.20;;;;;14.32;59.09;101807.19;2111935;27;46726;-63
2022/03/17 01:44:06;;;;;;;;;20.75;20.75;;;;;14.33;58.98;101805.38;2107672;27;47424;-67
2022/03/17 01:45:08;;;;;;;;;24.20;24.20;;;;;14.33;59.04;101810.72;2127594;27;47426;-67
2022/03/17 01:46:10;;;;;;;;;21.60;21.20;;;;;14.33;58.85;101803.59;2123950;27;47046;-66
2022/03/17 01:47:28;;;;;;;;;23.40;23.40;;;;;14.32;59.09;101806.28;2126328;27;47584;-66
2022/03/17 01:48:28;;;;;;;;;22.00;19.60;;;;;14.33;59.07;101803.59;2121768;27;47608;-66
2022/03/17 01:49:29;;;;;;;;;21.00;21.00;;;;;14.31;59.18;101794.75;2129602;27;47405;-66
2022/03/17 01:50:29;;;;;;;;;26.00;24.00;;;;;14.32;59.34;101808.97;2123271;27;47751;-66
2022/03/17 01:51:29;;;;;;;;;24.50;24.50;;;;;14.33;58.93;101808.94;2122595;27;47509;-66
2022/03/17 01:52:30;;;;;;;;;23.00;22.00;;;;;14.33;59.10;101808.94;2126768;27;47681;-67
2022/03/17 01:53:31;;;;;;;;;26.75;25.00;;;;;14.32;58.72;101804.50;2121604;27;47393;-65
2022/03/17 01:54:33;;;;;;;;;21.60;21.60;;;;;14.28;59.14;101804.59;2121832;27;47957;-67
2022/03/17 01:55:34;;;;;;;;;21.80;21.80;;;;;14.27;59.30;101802.84;2121871;27;47484;-67
2022/03/17 01:56:35;;;;;;;;;23.00;20.75;;;;;14.27;58.89;101808.19;2107002;27;47573;-66
2022/03/17 01:57:35;;;;;;;;;21.50;19.00;;;;;14.27;59.03;101808.19;2110863;27;47179;-63
2022/03/17 01:58:36;;;;;;;;;23.25;21.50;;;;;14.26;59.20;101818.00;2122982;27;47569;-65
2022/03/17 01:59:38;;;;;;;;;22.50;22.00;;;;;14.25;59.29;101818.91;2121647;27;47397;-66
2022/03/17 02:00:41;;;;;;;;;26.00;23.20;;;;;14.26;59.23;101817.13;2121732;27;47587;-65
2022/03/17 02:01:41;;;;;;;;;23.00;23.00;;;;;14.25;59.09;101818.91;2121434;27;47806;-67
2022/03/17 02:02:42;;;;;;;;;24.50;21.75;;;;;14.25;59.43;101826.91;2121897;27;47397;-68
2022/03/17 02:03:47;;;;;;;;;20.40;19.20;;;;;14.25;59.21;101834.03;2123220;27;47698;-68
2022/03/17 02:04:48;;;;;;;;;21.80;20.40;;;;;14.24;59.19;101830.50;2130320;27;48055;-66
2022/03/17 02:05:50;;;;;;;;;24.25;24.00;;;;;14.25;59.31;101826.91;2125319;27;45674;-68
2022/03/17 02:06:51;;;;;;;;;23.20;23.20;;;;;14.25;59.12;101832.25;2121704;27;47886;-66
2022/03/17 02:07:52;;;;;;;;;20.40;20.00;;;;;14.25;59.27;101828.69;2117147;27;47778;-68
2022/03/17 02:08:53;;;;;;;;;23.20;22.20;;;;;14.25;59.16;101828.69;2112565;27;47760;-66
2022/03/17 02:09:53;;;;;;;;;26.25;25.25;;;;;14.25;59.32;101824.25;2121795;27;47631;-67
2022/03/17 02:13:32;;;;;;;;;20.60;20.60;;;;;14.24;59.31;101840.28;2124456;27;47737;-66
2022/03/17 02:14:34;;;;;;;;;23.50;22.00;;;;;14.22;59.03;101826.94;2128062;27;47158;-62
2022/03/17 02:15:34;;;;;;;;;22.20;20.80;;;;;14.22;59.34;101832.28;2121887;27;48115;-67
2022/03/17 02:16:35;;;;;;;;;23.00;22.50;;;;;14.21;59.27;101841.22;2123991;27;46308;-66
2022/03/17 02:17:39;;;;;;;;;23.75;23.75;;;;;14.22;59.32;101847.44;2120822;27;47171;-67
2022/03/17 02:18:40;;;;;;;;;20.00;20.00;;;;;14.21;59.31;101853.69;2121856;27;48263;-68
2022/03/17 02:19:40;;;;;;;;;24.25;21.75;;;;;14.21;59.41;101849.22;2126219;27;47763;-66
2022/03/17 02:20:41;;;;;;;;;23.25;22.25;;;;;14.21;59.16;101851.88;2130360;27;47517;-67
2022/03/17 02:21:44;;;;;;;;;24.00;21.50;;;;;14.21;59.11;101865.22;2111789;27;48227;-68
2022/03/17 02:22:48;;;;;;;;;20.20;19.20;;;;;14.21;59.43;101856.34;2107065;27;47322;-66
2022/03/17 02:26:30;;;;;;;;;20.60;20.60;;;;;14.20;59.39;101858.13;2121455;27;47564;-67
2022/03/17 02:27:38;;;;;;;;;20.40;20.40;;;;;14.21;59.08;101861.69;2122015;27;47421;-67
2022/03/17 02:28:39;;;;;;;;;21.20;20.60;;;;;14.20;59.02;101868.81;2121622;27;47372;-67
2022/03/17 02:29:39;;;;;;;;;17.75;17.75;;;;;14.20;59.21;101874.16;2121484;27;47835;-67
2022/03/17 02:30:39;;;;;;;;;20.25;19.25;;;;;14.20;59.26;101870.59;2121260;27;47602;-62
2022/03/17 02:31:40;;;;;;;;;19.50;19.00;;;;;14.21;59.19;101873.25;2121229;27;47506;-66
2022/03/17 02:32:42;;;;;;;;;19.80;19.80;;;;;14.21;59.22;101865.22;2121394;27;47655;-67
2022/03/17 02:33:42;;;;;;;;;21.40;21.20;;;;;14.20;59.57;101881.28;2124974;27;47491;-66
2022/03/17 02:34:44;;;;;;;;;21.75;21.75;;;;;14.19;59.17;101872.41;2103142;28;48026;-67
2022/03/17 02:35:47;;;;;;;;;15.40;15.20;;;;;14.19;58.76;101867.06;2097998;27;47644;-65
2022/03/17 02:36:49;;;;;;;;;21.40;21.40;;;;;14.19;59.27;101871.53;2084996;28;48217;-63
2022/03/17 02:37:51;;;;;;;;;19.20;18.80;;;;;14.19;58.81;101872.41;2087420;27;48166;-65
2022/03/17 02:38:51;;;;;;;;;21.00;21.00;;;;;14.20;59.13;101870.59;2129099;27;46489;-67
2022/03/17 02:39:51;;;;;;;;;20.50;20.50;;;;;14.19;59.21;101864.38;2120250;27;47787;-65
2022/03/17 02:40:52;;;;;;;;;15.75;15.75;;;;;14.19;59.08;101869.72;2117224;27;47664;-67
2022/03/17 02:41:54;;;;;;;;;20.25;17.50;;;;;14.21;58.87;101875.03;2111769;27;47759;-66
2022/03/17 02:42:57;;;;;;;;;20.80;20.00;;;;;14.20;58.61;101881.28;2112058;27;47663;-66
2022/03/17 02:43:57;;;;;;;;;21.20;20.20;;;;;14.18;58.63;101870.63;2112359;27;47630;-69
2022/03/17 02:44:59;;;;;;;;;16.00;16.00;;;;;14.18;58.73;101861.75;2094768;28;46259;-66
2022/03/17 02:45:59;;;;;;;;;21.00;19.20;;;;;14.18;58.80;101867.97;2070056;28;48184;-64
2022/03/17 02:47:00;;;;;;;;;13.75;13.75;;;;;14.18;58.75;101867.09;2092890;28;47889;-68
2022/03/17 02:48:01;;;;;;;;;20.25;19.75;;;;;14.18;58.82;101865.31;2116598;27;47698;-68
2022/03/17 02:49:02;;;;;;;;;16.40;16.00;;;;;14.17;58.90;101854.66;2113311;27;48265;-66
2022/03/17 02:50:04;;;;;;;;;21.80;21.80;;;;;14.18;58.95;101859.09;2116805;27;47478;-65
2022/03/17 02:51:04;;;;;;;;;14.40;14.00;;;;;14.17;58.57;101868.88;2099472;28;47579;-65
2022/03/17 02:52:06;;;;;;;;;19.25;19.25;;;;;14.16;58.67;101874.25;2102466;27;47674;-68
2022/03/17 02:53:08;;;;;;;;;20.20;19.00;;;;;14.16;58.32;101871.59;2112218;27;48200;-71
2022/03/17 02:54:09;;;;;;;;;16.60;16.40;;;;;14.14;58.54;101879.63;2115962;27;48245;-68
2022/03/17 02:55:12;;;;;;;;;18.00;18.00;;;;;14.13;58.71;101881.41;2113324;27;47486;-69
2022/03/17 02:56:13;;;;;;;;;16.80;16.80;;;;;14.12;58.50;101882.31;2119457;27;48005;-68
2022/03/17 02:57:14;;;;;;;;;17.75;17.75;;;;;14.12;58.58;101887.66;2120213;27;47697;-68
2022/03/17 02:58:14;;;;;;;;;20.50;19.50;;;;;14.10;58.64;101891.25;2120677;27;47897;-63
2022/03/17 02:59:16;;;;;;;;;21.00;19.50;;;;;14.08;58.64;101891.28;2115355;27;47937;-69
2022/03/17 03:00:17;;;;;;;;;20.20;19.80;;;;;14.08;58.70;101893.94;2111697;27;47886;-64
2022/03/17 03:01:17;;;;;;;;;18.25;17.00;;;;;14.09;58.71;101889.47;2111406;27;47838;-67
2022/03/17 03:02:19;;;;;;;;;17.25;16.00;;;;;14.09;58.53;101890.34;2111864;27;47915;-67
2022/03/17 03:03:20;;;;;;;;;17.20;17.20;;;;;14.08;58.65;101888.59;2112005;27;47804;-66
2022/03/17 03:04:20;;;;;;;;;20.75;18.25;;;;;14.09;58.47;101900.16;2111637;27;47788;-69
2022/03/17 03:05:22;;;;;;;;;18.00;17.50;;;;;14.08;58.65;101895.72;2094455;28;48083;-66
2022/03/17 03:06:22;;;;;;;;;16.00;15.40;;;;;14.07;58.58;101889.50;2095021;27;48039;-66
2022/03/17 03:07:23;;;;;;;;;13.25;13.25;;;;;14.08;58.67;101896.59;2111671;27;47671;-68
2022/03/17 03:08:24;;;;;;;;;18.75;17.75;;;;;14.08;58.53;101899.28;2109995;27;47233;-62
2022/03/17 03:09:24;;;;;;;;;18.60;18.60;;;;;14.08;58.75;101901.06;2111767;27;48131;-67
2022/03/17 03:10:25;;;;;;;;;17.25;17.25;;;;;14.07;58.51;101897.53;2117205;27;47190;-67
2022/03/17 03:11:26;;;;;;;;;16.20;16.20;;;;;14.09;58.45;101902.81;2123023;27;47716;-62
2022/03/17 03:12:26;;;;;;;;;20.75;20.00;;;;;14.09;58.31;101908.16;2121313;27;47969;-65
2022/03/17 03:13:27;;;;;;;;;19.25;18.75;;;;;14.09;58.33;101908.16;2121499;27;47162;-66
2022/03/17 03:14:29;;;;;;;;;17.75;15.75;;;;;14.06;58.33;101902.88;2121296;27;48037;-67
2022/03/17 03:15:29;;;;;;;;;17.80;17.80;;;;;14.03;58.20;101909.16;2121254;27;47769;-68
2022/03/17 03:16:30;;;;;;;;;14.00;13.25;;;;;14.00;58.55;101903.88;2120695;27;47880;-67
2022/03/17 03:17:30;;;;;;;;;16.75;16.00;;;;;14.00;58.54;101905.69;2102664;28;47706;-68
2022/03/17 03:18:31;;;;;;;;;17.25;17.25;;;;;14.00;58.60;101911.00;2103124;28;48118;-69
2022/03/17 03:19:31;;;;;;;;;16.25;16.25;;;;;13.98;58.36;101912.84;2121263;27;47553;-68
2022/03/17 03:20:32;;;;;;;;;16.75;15.00;;;;;13.97;58.52;101908.38;2128931;27;47968;-66
2022/03/17 03:21:32;;;;;;;;;17.25;16.00;;;;;13.94;58.69;101911.97;2127654;27;47605;-68
2022/03/17 03:22:39;;;;;;;;;18.25;18.25;;;;;13.94;58.58;101909.31;2122116;27;48046;-64
2022/03/17 03:23:39;;;;;;;;;17.80;17.40;;;;;13.94;58.65;101911.97;2121218;27;47914;-67
2022/03/17 03:24:39;;;;;;;;;20.00;20.00;;;;;13.97;58.49;101913.72;2122170;27;47293;-67
2022/03/17 03:25:40;;;;;;;;;16.00;16.00;;;;;13.96;58.33;101918.16;2122130;27;47756;-68
2022/03/17 03:26:42;;;;;;;;;20.75;18.00;;;;;13.97;58.37;101913.72;2128209;27;47465;-68
2022/03/17 03:27:44;;;;;;;;;15.80;15.80;;;;;13.98;58.38;101908.38;2127520;27;48137;-66
2022/03/17 03:28:44;;;;;;;;;17.80;15.20;;;;;13.98;58.30;101923.50;2126908;27;47669;-66
2022/03/17 03:29:45;;;;;;;;;18.00;17.75;;;;;13.96;58.28;101920.84;2127103;27;47384;-69
2022/03/17 03:30:47;;;;;;;;;14.20;14.00;;;;;13.98;58.26;101929.72;2127699;27;47378;-67
2022/03/17 03:31:50;;;;;;;;;18.80;17.60;;;;;13.98;58.37;101921.72;2129151;27;47623;-69
2022/03/17 03:32:51;;;;;;;;;18.00;18.00;;;;;13.98;58.17;101932.41;2129597;27;47808;-68
2022/03/17 03:33:51;;;;;;;;;16.50;16.50;;;;;13.96;57.99;101931.50;2129746;27;47451;-67
2022/03/17 03:34:52;;;;;;;;;18.75;17.00;;;;;13.95;58.11;101926.19;2129733;27;47850;-65
2022/03/17 03:37:23;;;;;;;;;14.40;14.40;;;;;13.93;58.40;101928.03;2120935;27;47991;-69
2022/03/17 03:38:23;;;;;;;;;14.80;14.80;;;;;13.92;58.28;101928.94;2121106;27;47114;-69
2022/03/17 03:39:23;;;;;;;;;14.50;13.75;;;;;13.91;57.99;101929.84;2121078;27;47556;-67
2022/03/17 03:40:25;;;;;;;;;17.75;15.50;;;;;13.90;57.95;101923.63;2121179;27;47452;-68
2022/03/17 03:41:25;;;;;;;;;15.00;15.00;;;;;13.90;58.18;101931.63;2121347;27;47329;-64
2022/03/17 03:42:26;;;;;;;;;20.25;18.25;;;;;13.89;58.00;101934.31;2121276;27;47562;-70
2022/03/17 03:43:26;;;;;;;;;15.00;15.00;;;;;13.88;58.00;101938.78;2121352;27;47762;-67
2022/03/17 03:44:27;;;;;;;;;17.25;15.50;;;;;13.88;58.09;101933.44;2121139;27;47343;-68
2022/03/17 03:45:28;;;;;;;;;16.00;16.00;;;;;13.88;57.99;101935.22;2121258;27;47179;-67
2022/03/17 03:46:29;;;;;;;;;18.75;18.00;;;;;13.87;57.98;101947.69;2120356;27;48229;-66
2022/03/17 03:47:29;;;;;;;;;15.00;15.00;;;;;13.86;58.13;101945.94;2120979;27;47616;-67
2022/03/17 03:48:31;;;;;;;;;20.50;17.75;;;;;13.86;58.02;101945.06;2129548;27;48466;-66
2022/03/17 03:49:33;;;;;;;;;15.00;14.60;;;;;13.86;57.88;101953.06;2122345;27;47440;-65
2022/03/17 03:50:33;;;;;;;;;14.80;14.80;;;;;13.87;57.93;101954.81;2112556;27;48118;-68
2022/03/17 03:51:33;;;;;;;;;15.00;14.25;;;;;13.86;57.76;101959.28;2095628;28;47537;-66
2022/03/17 03:52:34;;;;;;;;;13.75;13.75;;;;;13.86;58.01;101961.06;2104357;28;46363;-67
2022/03/17 03:54:53;;;;;;;;;16.80;16.80;;;;;13.82;57.89;101971.75;2122818;27;47655;-67
2022/03/17 03:55:53;;;;;;;;;16.75;15.75;;;;;13.84;57.91;101977.06;2131383;27;47909;-68
2022/03/17 03:56:56;;;;;;;;;15.50;15.50;;;;;13.83;57.78;101973.53;2130843;27;47883;-67
2022/03/17 03:57:58;;;;;;;;;13.80;13.80;;;;;13.82;57.76;101976.22;2131223;27;47512;-69
2022/03/17 03:59:02;;;;;;;;;16.00;15.60;;;;;13.80;57.72;101981.56;2128922;27;48198;-68
2022/03/17 04:01:30;;;;;;;;;15.20;14.20;;;;;13.76;57.94;101985.22;2096001;28;48073;-69
2022/03/17 04:02:30;;;;;;;;;14.20;14.20;;;;;13.75;57.89;101980.78;2099717;28;48264;-63
2022/03/17 04:03:31;;;;;;;;;16.00;16.00;;;;;13.76;57.72;101992.34;2095409;28;47380;-68
2022/03/17 04:04:34;;;;;;;;;16.25;13.25;;;;;13.74;58.03;101991.47;2096123;28;47907;-70
2022/03/17 04:05:34;;;;;;;;;15.00;15.00;;;;;13.72;57.74;101991.50;2078389;28;46811;-64
2022/03/17 04:06:47;;;;;;;;;13.00;13.00;;;;;13.73;57.98;101995.06;2079548;28;47597;-69
2022/03/17 04:07:48;;;;;;;;;13.80;13.60;;;;;13.73;58.06;101992.38;2100503;28;47273;-67
2022/03/17 04:08:48;;;;;;;;;19.75;18.00;;;;;13.73;57.90;101995.94;2103461;28;47914;-70
2022/03/17 04:09:48;;;;;;;;;15.25;14.50;;;;;13.74;57.73;102005.69;2104535;28;47569;-64
2022/03/17 04:10:49;;;;;;;;;18.00;16.25;;;;;13.73;57.86;101998.59;2104287;28;48285;-67
2022/03/17 04:11:51;;;;;;;;;13.00;13.00;;;;;13.74;57.84;101996.81;2104315;28;47767;-66
2022/03/17 04:12:51;;;;;;;;;17.00;16.40;;;;;13.72;57.79;102002.16;2104141;28;47545;-68
2022/03/17 04:13:52;;;;;;;;;15.50;15.00;;;;;13.72;57.68;102006.59;2104579;28;47357;-68
2022/03/17 04:14:52;;;;;;;;;17.50;16.25;;;;;13.72;57.78;102007.50;2104410;28;48154;-69
2022/03/17 04:15:53;;;;;;;;;21.75;18.00;;;;;13.73;57.66;102013.72;2104642;28;47329;-65
2022/03/17 04:16:54;;;;;;;;;14.25;14.25;;;;;13.73;57.53;102014.59;2103894;28;47870;-70
2022/03/17 04:17:54;;;;;;;;;12.40;12.40;;;;;13.72;57.48;102017.28;2104115;28;47897;-64
2022/03/17 04:18:55;;;;;;;;;14.25;11.50;;;;;13.71;57.34;102020.84;2104535;28;47671;-68
2022/03/17 04:19:55;;;;;;;;;16.25;14.50;;;;;13.67;57.41;102022.69;2104103;28;47693;-68
2022/03/17 04:20:56;;;;;;;;;13.00;12.00;;;;;13.67;57.56;102020.00;2096104;28;47632;-64
2022/03/17 04:21:57;;;;;;;;;13.25;13.25;;;;;13.67;57.44;102022.69;2096044;28;47859;-67
2022/03/17 04:22:57;;;;;;;;;12.00;12.00;;;;;13.67;57.24;102020.00;2104324;28;47493;-66
2022/03/17 04:23:59;;;;;;;;;12.33;12.33;;;;;13.67;57.17;102021.78;2101665;28;47439;-68
2022/03/17 04:24:59;;;;;;;;;12.50;12.50;;;;;13.65;56.82;102021.81;2096004;28;48128;-67
2022/03/17 04:26:00;;;;;;;;;12.00;10.33;;;;;13.64;56.53;102025.41;2102766;28;48152;-68
2022/03/17 04:27:00;;;;;;;;;12.25;12.25;;;;;13.62;56.47;102029.88;2095812;28;47783;-66
2022/03/17 04:28:01;;;;;;;;;11.00;11.00;;;;;13.61;56.67;102029.91;2098986;28;47831;-66
2022/03/17 04:29:02;;;;;;;;;10.50;10.50;;;;;13.59;56.74;102037.88;2104509;28;47641;-69
2022/03/17 04:30:03;;;;;;;;;12.00;10.40;;;;;13.59;56.93;102042.34;2104332;28;47513;-69
2022/03/17 04:31:04;;;;;;;;;11.20;11.20;;;;;13.58;56.66;102041.47;2096017;28;47691;-67
2022/03/17 04:32:04;;;;;;;;;11.67;11.67;;;;;13.57;56.45;102039.69;2087589;28;47138;-68
2022/03/17 04:33:05;;;;;;;;;9.33;9.33;;;;;13.58;56.43;102037.91;2095723;28;48085;-68
2022/03/17 04:34:06;;;;;;;;;10.25;10.00;;;;;13.56;56.38;102043.28;2097224;28;47564;-65
2022/03/17 04:35:07;;;;;;;;;11.00;10.00;;;;;13.56;56.33;102043.28;2104268;28;45190;-65
2022/03/17 04:36:08;;;;;;;;;10.50;10.25;;;;;13.55;56.31;102052.19;2100960;28;47533;-65
2022/03/17 04:37:08;;;;;;;;;10.33;10.33;;;;;13.53;56.24;102048.66;2104097;28;47427;-67
2022/03/17 04:38:09;;;;;;;;;10.00;10.00;;;;;13.52;56.24;102044.22;2104006;28;47895;-67
2022/03/17 04:39:12;;;;;;;;;9.60;9.60;;;;;13.51;56.02;102056.69;2112445;27;47578;-67
2022/03/17 04:40:13;;;;;;;;;10.00;8.50;;;;;13.49;55.94;102050.50;2129024;27;47280;-67
2022/03/17 04:41:14;;;;;;;;;11.67;10.00;;;;;13.49;56.40;102061.16;2131058;27;45560;-68
2022/03/17 04:42:15;;;;;;;;;7.80;7.80;;;;;13.49;56.06;102055.81;2130471;27;47644;-66
2022/03/17 04:43:20;;;;;;;;;9.50;9.50;;;;;13.51;56.24;102055.78;2130670;27;47768;-66
2022/03/17 04:44:20;;;;;;;;;9.75;8.00;;;;;13.51;56.26;102063.81;2130409;27;47664;-67
2022/03/17 04:45:21;;;;;;;;;10.67;10.67;;;;;13.50;55.89;102062.91;2130624;27;48199;-64
2022/03/17 04:46:22;;;;;;;;;11.00;11.00;;;;;13.48;56.06;102063.84;2127661;27;47460;-68
2022/03/17 04:47:22;;;;;;;;;7.60;7.60;;;;;13.46;56.10;102063.84;2125917;27;47875;-66
2022/03/17 04:48:23;;;;;;;;;8.00;8.00;;;;;13.44;56.03;102073.63;2128302;27;48053;-69
2022/03/17 04:49:23;;;;;;;;;8.33;7.33;;;;;13.43;55.74;102069.22;2122160;27;47666;-68